Карточка аэропорта UAKK

Внимание!
Информация на этой странице в стадии наполнения.
Если вы не увидели какой-то информации, или заметили неточность - пожалуйста сообщите нам!
Спасибо!
Команда RU-STAFF
Название аэропортаКараганда
Название аэропорта (англ.)Karaganda
Превышение1768 ft. (538.9 m.)
Координаты49°40.302', 73°20.118'
Высота перехода10000
Эшелон переходаby ATC
Коды ответчика0630-0637, 7220-7227
Зона ОрВДАстана РПИ (UACN)
Данные METARUAKK 162300Z 19007MPS CAVOK 07/02 Q1018 NOSIG RMK QFE717/0956
Проноз погоды (TAF)UAKK 161700Z 1618/1718 16005MPS 9999 BKN030 BKN100 TX17/1709Z TN05/1701Z TEMPO 1618/1623 20008MPS BKN015 BECMG 1623/1701 24010MPS BKN015 BKN050 TEMPO 1623/1706 3100 -RA BR BKN007 BKN020 BECMG 1706/1708 BKN030CB TEMPO 1706/1718 26016MPS 3100 -SHRA BKN011CB
NOTAMshow/hide NOTAM
AWOS   TABLE

Информация о ВПП

ВПП Длина ВПП (м.) Покрытие Курс ВПП Частота ILS
233601Железобетон230111.7
053601Железобетон50109.9

Диспетчерские позиции




Спутниковое изображение